createdAt,value
2022-11-09T00:00:49.611Z,937.10
2022-11-09T00:01:49.600Z,937.14
2022-11-09T00:02:49.527Z,937.14
2022-11-09T00:03:49.524Z,937.14
2022-11-09T00:04:49.538Z,937.18
2022-11-09T00:05:49.502Z,937.11
2022-11-09T00:06:49.578Z,937.12
2022-11-09T00:07:49.504Z,937.10
2022-11-09T00:08:49.529Z,937.09
2022-11-09T00:09:49.650Z,937.09
2022-11-09T00:10:49.447Z,937.10
2022-11-09T00:11:49.465Z,937.09
2022-11-09T00:12:49.504Z,937.07
2022-11-09T00:13:49.528Z,937.00
2022-11-09T00:14:49.404Z,937.04
2022-11-09T00:15:49.412Z,937.00
2022-11-09T00:16:49.401Z,937.01
2022-11-09T00:17:49.384Z,936.96
2022-11-09T00:18:49.399Z,936.93
2022-11-09T00:19:49.356Z,936.96
2022-11-09T00:20:49.467Z,936.96
2022-11-09T00:21:49.342Z,936.96
2022-11-09T00:22:49.322Z,936.97
2022-11-09T00:23:49.363Z,936.94
2022-11-09T00:24:49.309Z,936.97
2022-11-09T00:25:49.293Z,936.90
2022-11-09T00:26:49.306Z,936.94
2022-11-09T00:27:49.296Z,936.92
2022-11-09T00:28:49.265Z,936.97
2022-11-09T00:29:49.257Z,936.97
2022-11-09T00:30:49.335Z,936.97
2022-11-09T00:31:49.234Z,936.98
2022-11-09T00:32:49.237Z,936.97
2022-11-09T00:33:49.268Z,937.00
2022-11-09T00:34:49.206Z,937.00
2022-11-09T00:35:49.309Z,937.00
2022-11-09T00:36:49.188Z,937.02
2022-11-09T00:37:49.239Z,936.97
2022-11-09T00:38:49.172Z,937.02
2022-11-09T00:39:49.187Z,936.98
2022-11-09T00:40:49.172Z,937.04
2022-11-09T00:41:49.143Z,936.99
2022-11-09T00:42:49.122Z,937.01
2022-11-09T00:43:49.118Z,937.02
2022-11-09T00:44:49.167Z,937.02
2022-11-09T00:45:49.078Z,937.00
2022-11-09T00:46:49.147Z,936.98
2022-11-09T00:47:49.154Z,936.99
2022-11-09T00:48:49.064Z,936.99
2022-11-09T00:49:49.057Z,937.03
2022-11-09T00:50:49.047Z,936.97
2022-11-09T00:51:49.100Z,937.00
2022-11-09T00:52:49.051Z,937.00
2022-11-09T00:53:49.122Z,937.05
2022-11-09T00:54:49.010Z,937.01
2022-11-09T00:55:49.030Z,937.00
2022-11-09T00:56:48.972Z,937.01
2022-11-09T00:57:49.078Z,937.03
2022-11-09T00:58:48.978Z,937.07
2022-11-09T00:59:48.950Z,937.03
2022-11-09T01:00:48.999Z,937.06
2022-11-09T01:01:48.921Z,936.99
2022-11-09T01:02:48.956Z,937.00
2022-11-09T01:03:48.920Z,936.99
2022-11-09T01:04:49.117Z,937.03
2022-11-09T01:05:49.030Z,937.03
2022-11-09T01:06:48.913Z,937.03
2022-11-09T01:07:49.099Z,937.03
2022-11-09T01:08:48.849Z,937.09
2022-11-09T01:09:48.895Z,937.08
2022-11-09T01:10:48.888Z,937.11
2022-11-09T01:11:48.838Z,937.14
2022-11-09T01:12:48.850Z,937.08
2022-11-09T01:13:48.794Z,937.06
2022-11-09T01:14:48.783Z,937.11
2022-11-09T01:15:48.866Z,937.14
2022-11-09T01:16:48.882Z,937.10
2022-11-09T01:17:48.820Z,937.07
2022-11-09T01:18:48.750Z,937.12
2022-11-09T01:19:48.737Z,937.08
2022-11-09T01:20:48.731Z,937.06
2022-11-09T01:21:48.751Z,937.02
2022-11-09T01:22:48.706Z,937.03
2022-11-09T01:23:48.699Z,937.05
2022-11-09T01:24:48.703Z,936.99
2022-11-09T01:25:48.764Z,937.04
2022-11-09T01:26:48.753Z,937.03
2022-11-09T01:27:48.705Z,936.98
2022-11-09T01:28:48.661Z,937.02
2022-11-09T01:29:48.636Z,937.06
2022-11-09T01:30:48.623Z,936.98
2022-11-09T01:31:48.608Z,936.96
2022-11-09T01:32:48.670Z,936.96
2022-11-09T01:33:48.594Z,937.04
2022-11-09T01:34:48.689Z,937.04
2022-11-09T01:35:48.714Z,937.03
2022-11-09T01:36:48.567Z,937.02
2022-11-09T01:37:48.585Z,937.09
2022-11-09T01:38:48.565Z,937.02
2022-11-09T01:39:48.543Z,937.02
2022-11-09T01:40:48.532Z,937.02
2022-11-09T01:41:48.522Z,937.07
2022-11-09T01:42:48.559Z,937.05
2022-11-09T01:43:48.509Z,937.02
2022-11-09T01:44:48.601Z,937.03
2022-11-09T01:45:48.468Z,936.99
2022-11-09T01:46:48.449Z,936.98
2022-11-09T01:47:53.380Z,937.03
2022-11-09T01:48:48.465Z,936.92
2022-11-09T01:49:48.476Z,936.96
2022-11-09T01:50:48.478Z,936.97
2022-11-09T01:51:48.403Z,937.01
2022-11-09T01:52:48.406Z,937.02
2022-11-09T01:53:48.427Z,937.01
2022-11-09T01:54:48.492Z,936.99
2022-11-09T01:55:48.413Z,936.99
2022-11-09T01:56:48.353Z,937.02
2022-11-09T01:57:48.341Z,936.97
2022-11-09T01:58:48.346Z,937.02
2022-11-09T01:59:48.368Z,936.95
2022-11-09T02:00:48.387Z,936.94
2022-11-09T02:01:48.377Z,936.90
2022-11-09T02:02:48.316Z,936.94
2022-11-09T02:03:48.275Z,936.96
2022-11-09T02:04:48.291Z,936.94
2022-11-09T02:05:48.260Z,936.92
2022-11-09T02:06:48.435Z,936.92
2022-11-09T02:07:48.235Z,936.96
2022-11-09T02:08:48.246Z,936.90
2022-11-09T02:09:48.222Z,936.87
2022-11-09T02:10:48.203Z,936.84
2022-11-09T02:11:48.262Z,936.86
2022-11-09T02:12:48.269Z,936.85
2022-11-09T02:13:48.196Z,936.83
2022-11-09T02:14:48.161Z,936.79
2022-11-09T02:15:48.186Z,936.82
2022-11-09T02:16:48.185Z,936.80
2022-11-09T02:17:48.204Z,936.77
2022-11-09T02:18:48.125Z,936.74
2022-11-09T02:19:48.118Z,936.75
2022-11-09T02:20:48.099Z,936.80
2022-11-09T02:21:48.111Z,936.79
2022-11-09T02:22:48.142Z,936.83
2022-11-09T02:23:48.066Z,936.83
2022-11-09T02:24:50.005Z,936.85
2022-11-09T02:25:48.144Z,936.80
2022-11-09T02:26:48.059Z,936.82
2022-11-09T02:27:48.071Z,936.79
2022-11-09T02:28:48.018Z,936.84
2022-11-09T02:29:48.001Z,936.80
2022-11-09T02:30:47.995Z,936.79
2022-11-09T02:31:48.071Z,936.78
2022-11-09T02:32:47.992Z,936.77
2022-11-09T02:33:48.084Z,936.76
2022-11-09T02:34:48.023Z,936.75
2022-11-09T02:35:47.958Z,936.73
2022-11-09T02:36:47.949Z,936.69
2022-11-09T02:37:47.952Z,936.72
2022-11-09T02:38:47.944Z,936.68
2022-11-09T02:39:47.913Z,936.67
2022-11-09T02:40:47.888Z,936.66
2022-11-09T02:41:47.880Z,936.70
2022-11-09T02:42:47.920Z,936.66
2022-11-09T02:43:47.896Z,936.69
2022-11-09T02:44:47.855Z,936.73
2022-11-09T02:45:47.866Z,936.73
2022-11-09T02:46:47.866Z,936.71
2022-11-09T02:47:47.841Z,936.71
2022-11-09T02:48:47.885Z,936.70
2022-11-09T02:49:47.884Z,936.70
2022-11-09T02:50:47.795Z,936.66
2022-11-09T02:51:47.793Z,936.70
2022-11-09T02:52:47.776Z,936.69
2022-11-09T02:53:47.851Z,936.63
2022-11-09T02:54:47.817Z,936.68
2022-11-09T02:55:47.738Z,936.63
2022-11-09T02:56:47.740Z,936.63
2022-11-09T02:57:47.740Z,936.59
2022-11-09T02:58:47.698Z,936.57
2022-11-09T02:59:47.724Z,936.57
2022-11-09T03:00:47.774Z,936.60
2022-11-09T03:01:47.682Z,936.58
2022-11-09T03:02:47.667Z,936.59
2022-11-09T03:03:47.715Z,936.57
2022-11-09T03:04:47.956Z,936.53
2022-11-09T03:05:47.636Z,936.53
2022-11-09T03:06:47.707Z,936.53
2022-11-09T03:07:47.698Z,936.57
2022-11-09T03:08:47.609Z,936.53
2022-11-09T03:09:47.588Z,936.63
2022-11-09T03:10:47.594Z,936.63
2022-11-09T03:11:47.575Z,936.59
2022-11-09T03:12:47.613Z,936.58
2022-11-09T03:13:47.543Z,936.56
2022-11-09T03:14:47.550Z,936.59
2022-11-09T03:15:47.573Z,936.57
2022-11-09T03:16:50.429Z,936.57
2022-11-09T03:17:51.466Z,936.57
2022-11-09T03:18:47.497Z,936.57
2022-11-09T03:19:47.510Z,936.52
2022-11-09T03:20:47.477Z,936.51
2022-11-09T03:21:47.558Z,936.53
2022-11-09T03:22:47.628Z,936.49
2022-11-09T03:23:47.462Z,936.51
2022-11-09T03:24:47.444Z,936.53
2022-11-09T03:25:47.445Z,936.50
2022-11-09T03:26:47.415Z,936.51
2022-11-09T03:27:47.400Z,936.50
2022-11-09T03:28:47.444Z,936.51
2022-11-09T03:29:47.390Z,936.43
2022-11-09T03:30:47.375Z,936.44
2022-11-09T03:31:47.377Z,936.41
2022-11-09T03:32:50.544Z,936.34
2022-11-09T03:33:47.431Z,936.38
2022-11-09T03:34:47.362Z,936.39
2022-11-09T03:35:47.364Z,936.34
2022-11-09T03:36:47.312Z,936.41
2022-11-09T03:37:47.358Z,936.40
2022-11-09T03:38:47.334Z,936.36
2022-11-09T03:39:47.374Z,936.35
2022-11-09T03:40:47.280Z,936.32
2022-11-09T03:41:47.307Z,936.35
2022-11-09T03:42:47.276Z,936.32
2022-11-09T03:43:47.243Z,936.35
2022-11-09T03:44:47.312Z,936.34
2022-11-09T03:45:47.304Z,936.34
2022-11-09T03:46:47.211Z,936.35
2022-11-09T03:47:47.207Z,936.36
2022-11-09T03:48:47.218Z,936.41
2022-11-09T03:49:47.174Z,936.37
2022-11-09T03:50:47.183Z,936.35
2022-11-09T03:51:47.295Z,936.35
2022-11-09T03:52:47.215Z,936.38
2022-11-09T03:53:47.163Z,936.38
2022-11-09T03:54:47.152Z,936.33
2022-11-09T03:55:47.118Z,936.39
2022-11-09T03:56:47.166Z,936.40
2022-11-09T03:57:47.107Z,936.34
2022-11-09T03:58:47.126Z,936.34
2022-11-09T03:59:47.068Z,936.37
2022-11-09T04:00:47.074Z,936.36
2022-11-09T04:01:47.118Z,936.37
2022-11-09T04:02:47.054Z,936.38
2022-11-09T04:03:47.181Z,936.35
2022-11-09T04:04:47.164Z,936.33
2022-11-09T04:05:47.007Z,936.43
2022-11-09T04:06:47.069Z,936.34
2022-11-09T04:07:47.014Z,936.37
2022-11-09T04:08:51.084Z,936.33
2022-11-09T04:09:47.061Z,936.41
2022-11-09T04:10:46.973Z,936.40
2022-11-09T04:11:46.967Z,936.40
2022-11-09T04:12:46.942Z,936.45
2022-11-09T04:13:46.937Z,936.41
2022-11-09T04:14:46.955Z,936.35
2022-11-09T04:15:46.949Z,936.39
2022-11-09T04:16:46.896Z,936.34
2022-11-09T04:17:51.467Z,936.39
2022-11-09T04:18:46.947Z,936.44
2022-11-09T04:19:46.862Z,936.44
2022-11-09T04:22:04.325Z,936.46
2022-11-09T04:23:04.270Z,936.44
2022-11-09T04:24:04.244Z,936.48
2022-11-09T04:25:04.222Z,936.38
2022-11-09T04:26:04.238Z,936.40
2022-11-09T04:27:04.261Z,936.42
2022-11-09T04:28:04.226Z,936.43
2022-11-09T04:29:04.265Z,936.43
2022-11-09T04:30:04.204Z,936.39
2022-11-09T04:31:04.176Z,936.44
2022-11-09T04:32:04.178Z,936.44
2022-11-09T04:33:04.177Z,936.43
2022-11-09T04:34:04.178Z,936.41
2022-11-09T04:35:04.128Z,936.43
2022-11-09T04:36:04.125Z,936.41
2022-11-09T04:37:04.128Z,936.42
2022-11-09T04:38:04.089Z,936.43
2022-11-09T04:39:04.102Z,936.43
2022-11-09T04:40:04.068Z,936.48
2022-11-09T04:41:04.163Z,936.47
2022-11-09T04:42:04.129Z,936.45
2022-11-09T04:43:04.107Z,936.49
2022-11-09T04:44:04.060Z,936.45
2022-11-09T04:45:04.018Z,936.46
2022-11-09T04:46:04.009Z,936.42
2022-11-09T04:47:04.087Z,936.42
2022-11-09T04:48:04.022Z,936.38
2022-11-09T04:49:04.109Z,936.41
2022-11-09T04:50:03.966Z,936.40
2022-11-09T04:51:03.950Z,936.39
2022-11-09T04:52:04.015Z,936.39
2022-11-09T04:53:07.751Z,936.39
2022-11-09T04:54:03.975Z,936.37
2022-11-09T04:55:03.942Z,936.43
2022-11-09T04:56:03.917Z,936.42
2022-11-09T04:57:03.896Z,936.42
2022-11-09T04:58:04.722Z,936.45
2022-11-09T04:59:03.888Z,936.48
2022-11-09T05:00:03.921Z,936.51
2022-11-09T05:01:03.853Z,936.52
2022-11-09T05:02:03.844Z,936.47
2022-11-09T05:03:03.837Z,936.49
2022-11-09T05:04:03.891Z,936.56
2022-11-09T05:05:03.951Z,936.53
2022-11-09T05:06:03.805Z,936.56
2022-11-09T05:07:03.824Z,936.55
2022-11-09T05:08:03.780Z,936.51
2022-11-09T05:09:03.768Z,936.48
2022-11-09T05:10:03.777Z,936.59
2022-11-09T05:11:03.807Z,936.60
2022-11-09T05:12:03.732Z,936.63
2022-11-09T05:13:03.728Z,936.61
2022-11-09T05:14:03.756Z,936.65
2022-11-09T05:15:03.779Z,936.65
2022-11-09T05:16:03.804Z,936.64
2022-11-09T05:17:03.807Z,936.66
2022-11-09T05:18:03.690Z,936.68
2022-11-09T05:19:03.665Z,936.65
2022-11-09T05:20:03.658Z,936.69
2022-11-09T05:21:03.684Z,936.71
2022-11-09T05:22:03.632Z,936.74
2022-11-09T05:23:03.627Z,936.71
2022-11-09T05:24:03.628Z,936.70
2022-11-09T05:25:03.612Z,936.70
2022-11-09T05:26:03.695Z,936.74
2022-11-09T05:27:03.721Z,936.73
2022-11-09T05:28:03.565Z,936.83
2022-11-09T05:29:03.563Z,936.79
2022-11-09T05:30:03.564Z,936.83
2022-11-09T05:31:03.552Z,936.91
2022-11-09T05:32:03.563Z,936.97
2022-11-09T05:33:03.524Z,936.96
2022-11-09T05:34:03.498Z,936.98
2022-11-09T05:35:03.496Z,937.00
2022-11-09T05:36:03.487Z,937.04
2022-11-09T05:37:03.911Z,937.12
2022-11-09T05:38:03.493Z,937.12
2022-11-09T05:39:03.533Z,937.15
2022-11-09T05:40:03.438Z,937.17
2022-11-09T05:41:03.464Z,937.18
2022-11-09T05:42:03.495Z,937.13
2022-11-09T05:43:03.440Z,937.17
2022-11-09T05:44:03.410Z,937.14
2022-11-09T05:45:28.054Z,937.16
2022-11-09T05:46:06.788Z,937.20
2022-11-09T05:47:03.401Z,937.20
2022-11-09T05:48:03.457Z,937.22
2022-11-09T05:49:03.519Z,937.22
2022-11-09T05:50:03.338Z,937.27
2022-11-09T05:51:03.346Z,937.29
2022-11-09T05:52:03.319Z,937.23
2022-11-09T05:53:03.359Z,937.26
2022-11-09T05:54:03.293Z,937.27
2022-11-09T05:55:03.355Z,937.23
2022-11-09T05:56:03.288Z,937.26
2022-11-09T05:57:03.285Z,937.30
2022-11-09T05:58:03.313Z,937.32
2022-11-09T05:59:03.272Z,937.30
2022-11-09T06:00:06.181Z,937.27
2022-11-09T06:01:04.938Z,937.26
2022-11-09T06:02:04.494Z,937.31
2022-11-09T06:03:03.219Z,937.33
2022-11-09T06:04:03.244Z,937.36
2022-11-09T06:05:03.221Z,937.29
2022-11-09T06:06:08.041Z,937.28
2022-11-09T06:07:04.175Z,937.29
2022-11-09T06:08:03.152Z,937.32
2022-11-09T06:09:03.144Z,937.33
2022-11-09T06:10:03.235Z,937.36
2022-11-09T06:11:03.134Z,937.44
2022-11-09T06:12:03.102Z,937.41
2022-11-09T06:13:03.103Z,937.44
2022-11-09T06:14:03.222Z,937.45
2022-11-09T06:15:03.089Z,937.44
2022-11-09T06:16:03.102Z,937.51
2022-11-09T06:17:03.060Z,937.50
2022-11-09T06:18:03.038Z,937.47
2022-11-09T06:19:03.037Z,937.50
2022-11-09T06:20:03.017Z,937.49
2022-11-09T06:21:03.036Z,937.54
2022-11-09T06:22:03.040Z,937.50
2022-11-09T06:23:04.293Z,937.58
2022-11-09T06:24:02.989Z,937.59
2022-11-09T06:25:02.973Z,937.56
2022-11-09T06:26:03.008Z,937.61
2022-11-09T06:27:02.956Z,937.65
2022-11-09T06:28:02.992Z,937.68
2022-11-09T06:29:03.006Z,937.67
2022-11-09T06:30:02.939Z,937.70
2022-11-09T06:31:02.989Z,937.73
2022-11-09T06:32:02.907Z,937.72
2022-11-09T06:33:03.690Z,937.70
2022-11-09T06:34:02.876Z,937.70
2022-11-09T06:35:02.867Z,937.71
2022-11-09T06:36:02.903Z,937.69
2022-11-09T06:37:02.844Z,937.75
2022-11-09T06:38:02.888Z,937.72
2022-11-09T06:39:02.846Z,937.73
2022-11-09T06:40:02.828Z,937.72
2022-11-09T06:41:02.860Z,937.74
2022-11-09T06:42:02.916Z,937.75
2022-11-09T06:43:02.789Z,937.80
2022-11-09T06:44:03.283Z,937.79
2022-11-09T06:45:02.763Z,937.80
2022-11-09T06:46:02.850Z,937.79
2022-11-09T06:47:02.763Z,937.81
2022-11-09T06:48:02.774Z,937.81
2022-11-09T06:49:02.728Z,937.79
2022-11-09T06:50:02.719Z,937.79
2022-11-09T06:51:02.751Z,937.78
2022-11-09T06:52:02.809Z,937.83
2022-11-09T06:53:02.700Z,937.82
2022-11-09T06:54:02.664Z,937.81
2022-11-09T06:55:02.673Z,937.84
2022-11-09T06:56:02.675Z,937.82
2022-11-09T06:57:02.705Z,937.83
2022-11-09T06:58:02.692Z,937.86
2022-11-09T06:59:02.615Z,937.92
2022-11-09T07:00:02.682Z,937.89
2022-11-09T07:01:02.696Z,937.92
2022-11-09T07:02:02.663Z,937.93
2022-11-09T07:03:02.607Z,937.91
2022-11-09T07:04:02.575Z,937.95
2022-11-09T07:05:02.569Z,937.97
2022-11-09T07:06:02.592Z,937.91
2022-11-09T07:07:02.618Z,937.92
2022-11-09T07:08:02.563Z,937.92
2022-11-09T07:09:02.512Z,937.93
2022-11-09T07:10:02.500Z,937.88
2022-11-09T07:11:02.508Z,937.95
2022-11-09T07:12:02.543Z,937.91
2022-11-09T07:13:02.476Z,937.92
2022-11-09T07:14:02.502Z,937.96
2022-11-09T07:15:02.475Z,937.94
2022-11-09T07:16:02.506Z,937.95
2022-11-09T07:17:02.587Z,937.96
2022-11-09T07:18:02.477Z,938.01
2022-11-09T07:19:02.571Z,938.00
2022-11-09T07:20:02.404Z,938.00
2022-11-09T07:21:02.405Z,938.02
2022-11-09T07:22:02.434Z,938.01
2022-11-09T07:23:02.415Z,938.02
2022-11-09T07:24:02.391Z,938.00
2022-11-09T07:25:02.357Z,938.06
2022-11-09T07:26:02.333Z,938.03
2022-11-09T07:27:02.325Z,938.01
2022-11-09T07:28:02.362Z,938.04
2022-11-09T07:29:02.314Z,938.07
2022-11-09T07:30:02.296Z,938.10
2022-11-09T07:31:02.461Z,938.09
2022-11-09T07:32:02.340Z,938.03
2022-11-09T07:33:10.374Z,938.07
2022-11-09T07:34:03.398Z,938.04
2022-11-09T07:35:02.301Z,938.03
2022-11-09T07:36:02.230Z,938.02
2022-11-09T07:37:02.305Z,938.04
2022-11-09T07:38:02.474Z,938.06
2022-11-09T07:39:02.223Z,937.98
2022-11-09T07:40:02.210Z,937.98
2022-11-09T07:41:02.200Z,938.02
2022-11-09T07:42:02.172Z,938.01
2022-11-09T07:43:02.179Z,938.02
2022-11-09T07:44:02.176Z,937.98
2022-11-09T07:45:02.306Z,938.06
2022-11-09T07:46:02.145Z,938.05
2022-11-09T07:47:18.392Z,938.07
2022-11-09T07:48:02.119Z,938.02
2022-11-09T07:49:02.140Z,937.98
2022-11-09T07:50:02.166Z,938.00
2022-11-09T07:51:02.158Z,938.03
2022-11-09T07:52:02.188Z,938.02
2022-11-09T07:53:02.092Z,938.01
2022-11-09T07:54:02.044Z,938.03
2022-11-09T07:55:02.055Z,938.05
2022-11-09T07:56:02.107Z,938.01
2022-11-09T07:57:02.755Z,938.00
2022-11-09T07:58:02.033Z,938.02
2022-11-09T07:59:02.047Z,938.00
2022-11-09T08:00:02.124Z,938.08
2022-11-09T08:01:01.993Z,938.07
2022-11-09T08:02:02.032Z,938.09
2022-11-09T08:03:01.989Z,938.02
2022-11-09T08:04:01.941Z,938.00
2022-11-09T08:05:01.998Z,938.00
2022-11-09T08:06:01.922Z,938.00
2022-11-09T08:07:02.037Z,937.89
2022-11-09T08:08:01.893Z,937.85
2022-11-09T08:09:01.918Z,937.99
2022-11-09T08:10:01.876Z,937.96
2022-11-09T08:11:01.935Z,937.94
2022-11-09T08:12:01.875Z,937.93
2022-11-09T08:13:01.860Z,937.96
2022-11-09T08:14:01.943Z,937.97
2022-11-09T08:15:01.821Z,937.85
2022-11-09T08:16:01.813Z,937.96
2022-11-09T08:17:01.971Z,937.87
2022-11-09T08:18:01.807Z,937.90
2022-11-09T08:19:01.781Z,937.85
2022-11-09T08:20:01.775Z,937.81
2022-11-09T08:21:01.793Z,937.81
2022-11-09T08:22:01.887Z,937.84
2022-11-09T08:23:04.786Z,937.80
2022-11-09T08:24:01.746Z,937.80
2022-11-09T08:25:01.715Z,937.86
2022-11-09T08:26:01.707Z,937.85
2022-11-09T08:27:01.696Z,937.86
2022-11-09T08:28:01.750Z,937.81
2022-11-09T08:29:01.678Z,937.78
2022-11-09T08:30:01.672Z,937.78
2022-11-09T08:31:01.648Z,937.65
2022-11-09T08:32:01.642Z,937.62
2022-11-09T08:33:01.802Z,937.70
2022-11-09T08:34:01.769Z,937.73
2022-11-09T08:35:01.696Z,937.81
2022-11-09T08:36:01.595Z,937.79
2022-11-09T08:37:01.583Z,937.72
2022-11-09T08:38:01.606Z,937.70
2022-11-09T08:39:01.612Z,937.72
2022-11-09T08:40:01.561Z,937.72
2022-11-09T08:41:01.622Z,937.71
2022-11-09T08:42:01.562Z,937.75
2022-11-09T08:43:01.528Z,937.73
2022-11-09T08:44:01.524Z,937.75
2022-11-09T08:45:01.655Z,937.78
2022-11-09T08:46:01.586Z,937.80
2022-11-09T08:47:01.626Z,937.76
2022-11-09T08:48:01.514Z,937.76
2022-11-09T08:49:01.481Z,937.71
2022-11-09T08:50:01.530Z,937.77
2022-11-09T08:51:01.490Z,937.80
2022-11-09T08:52:01.442Z,937.77
2022-11-09T08:53:01.407Z,937.79
2022-11-09T08:54:01.442Z,937.81
2022-11-09T08:55:01.458Z,937.76
2022-11-09T08:56:01.451Z,937.80
2022-11-09T08:57:01.390Z,937.74
2022-11-09T08:58:01.423Z,937.69
2022-11-09T08:59:01.404Z,937.78
2022-11-09T09:00:01.343Z,937.75
2022-11-09T09:01:01.357Z,937.76
2022-11-09T09:02:01.875Z,937.73
2022-11-09T09:03:01.375Z,937.75
2022-11-09T09:04:01.303Z,937.74
2022-11-09T09:05:01.316Z,937.73
2022-11-09T09:06:01.287Z,937.86
2022-11-09T09:07:01.402Z,937.80
2022-11-09T09:08:01.340Z,937.83
2022-11-09T09:09:01.283Z,937.80
2022-11-09T09:10:01.259Z,937.69
2022-11-09T09:11:01.281Z,937.80
2022-11-09T09:12:01.221Z,937.76
2022-11-09T09:13:01.243Z,937.70
2022-11-09T09:14:01.219Z,937.62
2022-11-09T09:15:01.191Z,937.68
2022-11-09T09:16:01.169Z,937.72
2022-11-09T09:17:05.790Z,937.68
2022-11-09T09:18:01.146Z,937.61
2022-11-09T09:19:01.194Z,937.67
2022-11-09T09:20:01.159Z,937.47
2022-11-09T09:21:01.140Z,937.66
2022-11-09T09:22:01.105Z,937.53
2022-11-09T09:23:09.027Z,937.51
2022-11-09T09:24:01.086Z,937.52
2022-11-09T09:25:01.136Z,937.56
2022-11-09T09:26:01.072Z,937.55
2022-11-09T09:27:01.082Z,937.52
2022-11-09T09:28:01.173Z,937.47
2022-11-09T09:29:01.049Z,937.51
2022-11-09T09:30:01.028Z,937.57
2022-11-09T09:31:01.099Z,937.57
2022-11-09T09:32:01.069Z,937.50
2022-11-09T09:33:01.028Z,937.58
2022-11-09T09:34:00.984Z,937.65
2022-11-09T09:35:00.972Z,937.61
2022-11-09T09:36:00.960Z,937.66
2022-11-09T09:37:00.978Z,937.61
2022-11-09T09:38:00.997Z,937.71
2022-11-09T09:39:01.871Z,937.68
2022-11-09T09:40:00.953Z,937.70
2022-11-09T09:41:00.920Z,937.69
2022-11-09T09:42:00.909Z,937.69
2022-11-09T09:43:00.996Z,937.70
2022-11-09T09:44:00.882Z,937.70
2022-11-09T09:45:00.866Z,937.74
2022-11-09T09:46:00.861Z,937.77
2022-11-09T09:47:00.857Z,937.68
2022-11-09T09:48:00.929Z,937.73
2022-11-09T09:49:00.875Z,937.73
2022-11-09T09:50:00.913Z,937.76
2022-11-09T09:51:00.841Z,937.72
2022-11-09T09:52:00.913Z,937.74
2022-11-09T09:53:22.660Z,937.66
2022-11-09T09:54:01.783Z,937.74
2022-11-09T09:55:00.794Z,937.76
2022-11-09T09:56:00.761Z,937.70
2022-11-09T09:57:00.836Z,937.76
2022-11-09T09:58:00.774Z,937.75
2022-11-09T09:59:00.851Z,937.71
2022-11-09T10:00:00.745Z,937.71
2022-11-09T10:01:00.713Z,937.74
2022-11-09T10:02:00.726Z,937.67
2022-11-09T10:03:00.711Z,937.69
2022-11-09T10:04:00.747Z,937.72
2022-11-09T10:05:00.682Z,937.69
2022-11-09T10:06:00.736Z,937.63
2022-11-09T10:07:00.770Z,937.67
2022-11-09T10:08:00.727Z,937.69
2022-11-09T10:09:00.675Z,937.70
2022-11-09T10:10:00.670Z,937.69
2022-11-09T10:11:00.599Z,937.76
2022-11-09T10:12:01.437Z,937.69
2022-11-09T10:13:00.589Z,937.69
2022-11-09T10:14:00.579Z,937.65
2022-11-09T10:15:00.587Z,937.68
2022-11-09T10:16:00.628Z,937.66
2022-11-09T10:17:00.562Z,937.64
2022-11-09T10:18:00.669Z,937.64
2022-11-09T10:19:00.534Z,937.61
2022-11-09T10:20:00.533Z,937.65
2022-11-09T10:21:00.536Z,937.70
2022-11-09T10:22:00.707Z,937.68
2022-11-09T10:23:15.347Z,937.66
2022-11-09T10:24:00.490Z,937.64
2022-11-09T10:26:06.889Z,937.60
2022-11-09T10:27:01.429Z,937.59
2022-11-09T10:28:00.468Z,937.52
2022-11-09T10:29:17.013Z,937.54
2022-11-09T10:30:01.437Z,937.51
2022-11-09T10:31:00.457Z,937.47
2022-11-09T10:32:00.458Z,937.42
2022-11-09T10:36:18.024Z,937.34
2022-11-09T10:37:18.250Z,937.38
2022-11-09T10:38:18.475Z,937.32
2022-11-09T10:39:25.544Z,937.36
2022-11-09T10:40:18.028Z,937.39
2022-11-09T10:41:18.854Z,937.37
2022-11-09T10:42:17.951Z,937.39
2022-11-09T10:43:17.966Z,937.41
2022-11-09T10:44:18.213Z,937.35
2022-11-09T10:45:18.816Z,937.38
2022-11-09T10:46:17.908Z,937.35
2022-11-09T10:47:29.051Z,937.39
2022-11-09T10:48:18.741Z,937.35
2022-11-09T10:49:17.947Z,937.30
2022-11-09T10:50:17.838Z,937.33
2022-11-09T10:51:17.851Z,937.34
2022-11-09T10:52:17.822Z,937.37
2022-11-09T10:53:17.848Z,937.37
2022-11-09T10:54:17.880Z,937.34
2022-11-09T10:55:17.811Z,937.36
2022-11-09T10:56:21.326Z,937.34
2022-11-09T10:57:17.832Z,937.29
2022-11-09T10:58:18.167Z,937.34
2022-11-09T10:59:17.784Z,937.25
2022-11-09T11:00:17.787Z,937.26
2022-11-09T11:01:17.850Z,937.22
2022-11-09T11:02:17.825Z,937.23
2022-11-09T11:03:17.971Z,937.21
2022-11-09T11:04:17.775Z,937.26
2022-11-09T11:05:17.718Z,937.22
2022-11-09T11:06:17.686Z,937.19
2022-11-09T11:07:20.941Z,937.17
2022-11-09T11:08:17.728Z,937.21
2022-11-09T11:09:17.704Z,937.18
2022-11-09T11:10:17.693Z,937.13
2022-11-09T11:11:35.403Z,937.05
2022-11-09T11:12:18.612Z,937.05
2022-11-09T11:13:17.782Z,937.09
2022-11-09T11:14:22.686Z,937.11
2022-11-09T11:15:18.639Z,937.12
2022-11-09T11:16:17.666Z,937.16
2022-11-09T11:17:17.565Z,937.13
2022-11-09T11:18:17.600Z,937.13
2022-11-09T11:19:17.580Z,937.11
2022-11-09T11:20:17.527Z,937.06
2022-11-09T11:21:18.919Z,937.02
2022-11-09T11:22:17.527Z,937.11
2022-11-09T11:23:17.857Z,937.13
2022-11-09T11:24:17.502Z,937.01
2022-11-09T11:25:17.569Z,937.06
2022-11-09T11:26:17.531Z,937.06
2022-11-09T11:27:17.481Z,937.01
2022-11-09T11:28:17.459Z,936.97
2022-11-09T11:29:17.441Z,937.00
2022-11-09T11:30:17.456Z,936.96
2022-11-09T11:31:17.477Z,936.96
2022-11-09T11:32:17.409Z,936.99
2022-11-09T11:33:17.633Z,936.87
2022-11-09T11:34:38.410Z,936.89
2022-11-09T11:35:18.401Z,936.86
2022-11-09T11:36:18.337Z,936.88
2022-11-09T11:37:17.352Z,936.92
2022-11-09T11:38:17.576Z,936.88
2022-11-09T11:39:17.350Z,936.83
2022-11-09T11:40:17.374Z,936.86
2022-11-09T11:41:17.317Z,936.87
2022-11-09T11:42:17.291Z,936.87
2022-11-09T11:43:17.521Z,936.84
2022-11-09T11:44:17.301Z,936.86
2022-11-09T11:45:42.709Z,936.87
2022-11-09T11:46:18.256Z,936.87
2022-11-09T11:47:17.257Z,936.84
2022-11-09T11:48:17.451Z,936.88
2022-11-09T11:49:17.407Z,936.82
2022-11-09T11:50:17.249Z,936.82
2022-11-09T11:51:24.869Z,936.83
2022-11-09T11:52:17.193Z,936.84
2022-11-09T11:53:17.186Z,936.74
2022-11-09T11:54:17.180Z,936.83
2022-11-09T11:55:17.172Z,936.82
2022-11-09T11:56:17.158Z,936.77
2022-11-09T11:57:17.165Z,936.80
2022-11-09T11:58:17.165Z,936.78
2022-11-09T11:59:17.128Z,936.73
2022-11-09T12:00:17.131Z,936.64
2022-11-09T12:01:17.295Z,936.68
2022-11-09T12:02:17.154Z,936.72
2022-11-09T12:03:17.087Z,936.69
2022-11-09T12:04:17.123Z,936.68
2022-11-09T12:05:17.064Z,936.76
2022-11-09T12:06:17.073Z,936.67
2022-11-09T12:07:17.167Z,936.71
2022-11-09T12:08:17.069Z,936.73
2022-11-09T12:09:17.024Z,936.71
2022-11-09T12:10:17.158Z,936.69
2022-11-09T12:11:17.110Z,936.73
2022-11-09T12:12:17.107Z,936.68
2022-11-09T12:13:17.016Z,936.72
2022-11-09T12:14:16.979Z,936.69
2022-11-09T12:15:16.955Z,936.74
2022-11-09T12:16:16.976Z,936.72
2022-11-09T12:17:21.904Z,936.73
2022-11-09T12:18:16.963Z,936.79
2022-11-09T12:19:16.931Z,936.76
2022-11-09T12:20:16.915Z,936.75
2022-11-09T12:21:16.900Z,936.78
2022-11-09T12:22:16.923Z,936.76
2022-11-09T12:23:16.879Z,936.74
2022-11-09T12:24:16.889Z,936.77
2022-11-09T12:25:16.873Z,936.77
2022-11-09T12:26:21.508Z,936.74
2022-11-09T12:27:31.605Z,936.81
2022-11-09T12:28:17.836Z,936.73
2022-11-09T12:29:16.877Z,936.72
2022-11-09T12:30:16.856Z,936.69
2022-11-09T12:31:16.789Z,936.69
2022-11-09T12:32:16.833Z,936.71
2022-11-09T12:33:16.775Z,936.66
2022-11-09T12:34:16.761Z,936.68